createdAt,value
2022-11-04T00:00:48.431Z,11.75
2022-11-04T00:03:15.379Z,13.68
2022-11-04T00:05:42.174Z,13.63
2022-11-04T00:08:24.182Z,14.88
2022-11-04T00:11:17.154Z,13.77
2022-11-04T00:13:45.283Z,14.05
2022-11-04T00:16:31.796Z,14.98
2022-11-04T00:19:00.733Z,13.35
2022-11-04T00:21:47.669Z,11.88
2022-11-04T00:24:33.621Z,16.95
2022-11-04T00:27:18.774Z,13.52
2022-11-04T00:29:45.817Z,15.07
2022-11-04T00:32:31.167Z,11.55
2022-11-04T00:34:58.019Z,11.63
2022-11-04T00:37:24.848Z,12.60
2022-11-04T00:39:51.713Z,18.15
2022-11-04T00:42:18.526Z,16.23
2022-11-04T00:44:45.367Z,15.77
2022-11-04T00:47:12.401Z,16.67
2022-11-04T00:49:39.237Z,20.40
2022-11-04T00:52:06.154Z,19.27
2022-11-04T00:54:32.958Z,17.98
2022-11-04T00:56:59.835Z,18.98
2022-11-04T00:59:27.036Z,18.20
2022-11-04T01:01:54.011Z,20.65
2022-11-04T01:04:20.981Z,18.70
2022-11-04T01:06:48.262Z,19.58
2022-11-04T01:09:15.139Z,22.23
2022-11-04T01:11:42.195Z,19.77
2022-11-04T01:14:09.548Z,19.02
2022-11-04T01:16:36.819Z,20.90
2022-11-04T01:19:03.740Z,18.58
2022-11-04T01:21:30.685Z,25.30
2022-11-04T01:23:59.881Z,24.45
2022-11-04T01:26:29.419Z,25.23
2022-11-04T01:28:58.187Z,24.38
2022-11-04T01:31:29.316Z,26.33
2022-11-04T01:33:58.422Z,24.77
2022-11-04T01:36:27.550Z,27.60
2022-11-04T01:38:57.693Z,28.73
2022-11-04T01:41:31.505Z,27.33
2022-11-04T01:44:02.354Z,25.45
2022-11-04T01:46:49.340Z,25.92
2022-11-04T01:49:30.962Z,32.13
2022-11-04T01:52:13.142Z,25.20
2022-11-04T01:54:43.115Z,26.30
2022-11-04T01:57:19.388Z,28.33
2022-11-04T01:59:47.255Z,30.08
2022-11-04T02:02:14.151Z,25.92
2022-11-04T02:04:44.128Z,29.45
2022-11-04T02:07:12.104Z,27.80
2022-11-04T02:09:40.284Z,29.52
2022-11-04T02:12:25.893Z,31.35
2022-11-04T02:14:54.795Z,31.50
2022-11-04T02:17:51.445Z,28.92
2022-11-04T02:20:44.281Z,27.33
2022-11-04T02:23:47.998Z,27.33
2022-11-04T02:26:52.561Z,27.05
2022-11-04T02:29:44.006Z,33.60
2022-11-04T02:32:47.553Z,27.38
2022-11-04T02:35:39.088Z,30.88
2022-11-04T02:38:33.889Z,29.95
2022-11-04T02:41:52.756Z,31.63
2022-11-04T02:44:38.684Z,30.30
2022-11-04T02:47:15.724Z,30.23
2022-11-04T02:49:57.877Z,27.13
2022-11-04T02:53:22.963Z,26.05
2022-11-04T02:55:58.484Z,31.05
2022-11-04T02:58:41.409Z,32.35
2022-11-04T03:01:14.671Z,34.33
2022-11-04T03:03:48.586Z,33.85
2022-11-04T03:06:21.611Z,31.58
2022-11-04T03:08:52.867Z,29.23
2022-11-04T03:11:24.678Z,35.97
2022-11-04T03:14:29.609Z,29.33
2022-11-04T03:17:06.493Z,28.92
2022-11-04T03:19:53.462Z,27.27
2022-11-04T03:22:25.445Z,30.77
2022-11-04T03:24:53.248Z,30.55
2022-11-04T03:27:27.592Z,27.77
2022-11-04T03:30:12.380Z,30.25
2022-11-04T03:33:01.856Z,30.97
2022-11-04T03:35:29.421Z,26.67
2022-11-04T03:37:57.952Z,27.15
2022-11-04T03:40:26.013Z,29.05
2022-11-04T03:43:00.316Z,24.58
2022-11-04T03:45:27.640Z,28.30
2022-11-04T03:47:56.894Z,26.17
2022-11-04T03:50:30.460Z,26.98
2022-11-04T03:52:59.068Z,28.58
2022-11-04T03:56:13.738Z,29.17
2022-11-04T03:58:52.666Z,30.95
2022-11-04T04:01:56.862Z,28.98
2022-11-04T04:04:36.679Z,27.45
2022-11-04T04:07:19.668Z,25.85
2022-11-04T04:10:41.643Z,29.35
2022-11-04T04:13:31.784Z,31.88
2022-11-04T04:16:20.928Z,25.42
2022-11-04T04:19:24.166Z,29.38
2022-11-04T04:22:09.491Z,26.23
2022-11-04T04:25:00.764Z,30.98
2022-11-04T04:27:33.709Z,30.50
2022-11-04T04:30:12.327Z,26.73
2022-11-04T04:32:49.780Z,32.15
2022-11-04T04:35:38.005Z,27.83
2022-11-04T04:38:31.415Z,23.38
2022-11-04T04:41:30.466Z,31.35
2022-11-04T04:44:17.596Z,23.92
2022-11-04T04:46:49.401Z,25.02
2022-11-04T04:49:16.406Z,25.63
2022-11-04T04:51:47.207Z,30.88
2022-11-04T04:54:14.629Z,27.23
2022-11-04T04:56:41.571Z,30.05
2022-11-04T04:59:08.491Z,32.70
2022-11-04T05:01:35.453Z,27.15
2022-11-04T05:04:02.399Z,27.60
2022-11-04T05:06:29.208Z,25.13
2022-11-04T05:08:56.098Z,30.60
2022-11-04T05:11:24.563Z,30.80
2022-11-04T05:13:57.752Z,27.00
2022-11-04T05:16:24.637Z,29.52
2022-11-04T05:18:54.570Z,36.33
2022-11-04T05:21:21.522Z,39.72
2022-11-04T05:23:48.350Z,41.97
2022-11-04T05:26:15.387Z,40.90
2022-11-04T05:28:42.219Z,50.72
2022-11-04T05:31:09.134Z,41.25
2022-11-04T05:33:36.088Z,43.92
2022-11-04T05:36:11.752Z,44.72
2022-11-04T05:38:39.601Z,48.35
2022-11-04T05:41:09.237Z,59.80
2022-11-04T05:43:36.486Z,56.63
2022-11-04T05:46:03.923Z,58.70
2022-11-04T05:48:30.881Z,57.00
2022-11-04T05:50:57.790Z,46.40
2022-11-04T05:53:24.683Z,56.50
2022-11-04T05:55:51.608Z,58.67
2022-11-04T05:58:18.429Z,50.53
2022-11-04T06:00:45.252Z,55.13
2022-11-04T06:03:15.316Z,53.75
2022-11-04T06:05:43.448Z,53.22
2022-11-04T06:08:10.717Z,61.28
2022-11-04T06:10:51.063Z,65.13
2022-11-04T06:13:33.040Z,50.08
2022-11-04T06:16:10.269Z,72.45
2022-11-04T06:19:05.815Z,63.80
2022-11-04T06:21:41.138Z,67.38
2022-11-04T06:25:38.648Z,68.30
2022-11-04T06:28:09.833Z,63.45
2022-11-04T06:31:05.271Z,62.22
2022-11-04T06:33:36.847Z,67.72
2022-11-04T06:36:07.488Z,72.25
2022-11-04T06:38:40.133Z,74.05
2022-11-04T06:41:14.456Z,72.70
2022-11-04T06:43:41.576Z,75.80
2022-11-04T06:46:32.071Z,80.78
2022-11-04T06:48:59.282Z,70.80
2022-11-04T06:51:26.843Z,67.15
2022-11-04T06:53:54.080Z,62.78
2022-11-04T06:56:20.932Z,104.80
2022-11-04T06:58:53.382Z,67.28
2022-11-04T07:01:23.544Z,63.45
2022-11-04T07:03:52.795Z,67.20
2022-11-04T07:06:20.855Z,63.55
2022-11-04T07:08:49.182Z,56.85
2022-11-04T07:11:19.656Z,50.45
2022-11-04T07:13:47.055Z,44.13
2022-11-04T07:16:15.820Z,42.30
2022-11-04T07:18:42.926Z,41.65
2022-11-04T07:21:11.364Z,39.75
2022-11-04T07:23:39.085Z,33.42
2022-11-04T07:26:08.499Z,32.90
2022-11-04T07:28:36.156Z,32.90
2022-11-04T07:31:06.502Z,30.35
2022-11-04T07:33:34.197Z,27.83
2022-11-04T07:36:10.609Z,26.90
2022-11-04T07:38:37.657Z,23.17
2022-11-04T07:41:05.243Z,25.48
2022-11-04T07:43:32.325Z,23.05
2022-11-04T07:46:12.267Z,22.13
2022-11-04T07:48:39.986Z,19.80
2022-11-04T07:51:10.780Z,21.63
2022-11-04T07:53:47.572Z,22.95
2022-11-04T07:56:14.736Z,20.58
2022-11-04T07:58:41.924Z,20.50
2022-11-04T08:01:15.125Z,18.83
2022-11-04T08:03:42.694Z,20.70
2022-11-04T08:06:12.671Z,20.20
2022-11-04T08:08:40.127Z,20.05
2022-11-04T08:11:17.127Z,20.35
2022-11-04T08:13:46.081Z,18.27
2022-11-04T08:16:20.067Z,17.02
2022-11-04T08:18:49.467Z,20.42
2022-11-04T08:21:20.752Z,16.02
2022-11-04T08:23:48.129Z,14.52
2022-11-04T08:26:18.940Z,19.40
2022-11-04T08:28:46.642Z,16.60
2022-11-04T08:31:31.291Z,16.50
2022-11-04T08:33:58.208Z,13.55
2022-11-04T08:36:34.285Z,13.15
2022-11-04T08:39:05.899Z,15.80
2022-11-04T08:41:37.793Z,15.27
2022-11-04T08:44:05.776Z,12.75
2022-11-04T08:46:40.081Z,14.30
2022-11-04T08:49:17.776Z,20.50
2022-11-04T08:51:56.255Z,16.88
2022-11-04T08:54:24.950Z,12.93
2022-11-04T08:56:58.401Z,8.65
2022-11-04T08:59:25.423Z,11.57
2022-11-04T09:01:52.679Z,13.45
2022-11-04T09:04:20.048Z,14.38
2022-11-04T09:06:48.511Z,15.77
2022-11-04T09:09:17.670Z,12.57
2022-11-04T09:11:46.323Z,11.18
2022-11-04T09:14:13.956Z,7.63
2022-11-04T09:16:47.162Z,11.20
2022-11-04T09:19:14.514Z,11.35
2022-11-04T09:21:41.553Z,11.80
2022-11-04T09:24:08.842Z,10.35
2022-11-04T09:26:36.316Z,11.88
2022-11-04T09:29:03.293Z,12.95
2022-11-04T09:31:31.165Z,8.93
2022-11-04T09:33:58.152Z,10.05
2022-11-04T09:36:25.832Z,9.93
2022-11-04T09:38:52.925Z,10.35
2022-11-04T09:41:31.701Z,10.50
2022-11-04T09:44:17.038Z,7.47
2022-11-04T09:46:49.249Z,12.10
2022-11-04T09:49:16.796Z,11.20
2022-11-04T09:51:54.535Z,8.07
2022-11-04T09:54:47.066Z,9.32
2022-11-04T09:57:19.222Z,8.63
2022-11-04T09:59:47.881Z,13.20
2022-11-04T10:02:45.917Z,11.77
2022-11-04T10:05:21.046Z,8.30
2022-11-04T10:08:25.001Z,8.18
2022-11-04T10:11:21.223Z,10.23
2022-11-04T10:14:35.143Z,11.93
2022-11-04T10:17:17.041Z,13.20
2022-11-04T10:20:29.047Z,12.32
2022-11-04T10:23:38.611Z,10.20
2022-11-04T10:26:36.648Z,13.02
2022-11-04T10:29:10.921Z,12.50
2022-11-04T10:31:43.435Z,10.98
2022-11-04T10:34:37.680Z,11.20
2022-11-04T10:37:11.013Z,12.93
2022-11-04T10:39:46.880Z,10.15
2022-11-04T10:42:22.143Z,12.27
2022-11-04T10:44:52.143Z,9.00
2022-11-04T10:47:51.791Z,10.73
2022-11-04T10:50:34.667Z,8.20
2022-11-04T10:53:37.286Z,13.02
2022-11-04T10:56:31.405Z,10.80
2022-11-04T10:59:19.907Z,10.45
2022-11-04T11:02:00.630Z,8.65
2022-11-04T11:04:33.986Z,7.05
2022-11-04T11:07:09.115Z,7.25
2022-11-04T11:09:53.362Z,7.45
2022-11-04T11:12:51.019Z,8.40
2022-11-04T11:15:38.037Z,11.50
2022-11-04T11:18:18.033Z,9.20
2022-11-04T11:21:15.900Z,8.93
2022-11-04T11:23:47.483Z,8.30
2022-11-04T11:26:29.946Z,7.00
2022-11-04T11:29:02.402Z,8.80
2022-11-04T11:31:40.679Z,7.72
2022-11-04T11:34:26.559Z,6.03
2022-11-04T11:36:56.429Z,6.97
2022-11-04T11:39:30.879Z,9.43
2022-11-04T11:42:04.692Z,7.40
2022-11-04T11:44:38.721Z,9.43
2022-11-04T11:47:18.282Z,9.65
2022-11-04T11:49:45.395Z,7.45
2022-11-04T11:52:32.462Z,9.65
2022-11-04T11:55:23.773Z,9.68
2022-11-04T12:01:38.929Z,7.47
2022-11-04T12:10:51.005Z,10.10
2022-11-04T12:13:34.983Z,9.88
2022-11-04T12:16:19.886Z,7.45
2022-11-04T12:19:13.973Z,9.02
2022-11-04T12:22:33.642Z,7.43
2022-11-04T12:25:20.440Z,8.15
2022-11-04T12:27:58.623Z,7.32
2022-11-04T12:30:33.787Z,5.63
2022-11-04T12:33:25.285Z,5.82
2022-11-04T12:36:25.230Z,6.00
2022-11-04T12:39:25.380Z,6.07
2022-11-04T12:42:23.793Z,6.95
2022-11-04T12:45:04.054Z,6.05
2022-11-04T12:47:44.877Z,7.93
2022-11-04T12:50:42.602Z,8.20
2022-11-04T12:53:21.462Z,8.77
2022-11-04T12:56:06.768Z,10.15
2022-11-04T12:59:23.375Z,7.75
2022-11-04T13:04:29.018Z,10.30
2022-11-04T13:07:08.336Z,11.63
2022-11-04T13:09:50.801Z,9.93
2022-11-04T13:12:23.494Z,13.88
2022-11-04T13:15:12.717Z,10.93
2022-11-04T13:17:42.418Z,14.18
2022-11-04T13:20:14.013Z,14.05
2022-11-04T13:22:46.800Z,17.33
2022-11-04T13:25:34.863Z,13.93
2022-11-04T13:28:03.935Z,15.02
2022-11-04T13:30:40.255Z,14.52
2022-11-04T13:33:43.463Z,11.35
2022-11-04T13:36:28.075Z,12.68
2022-11-04T13:39:13.626Z,12.43
2022-11-04T13:44:53.302Z,12.88
2022-11-04T13:47:32.516Z,14.77
2022-11-04T13:49:59.618Z,12.77
2022-11-04T13:52:32.518Z,12.40
2022-11-04T13:55:05.947Z,13.63
2022-11-04T13:57:55.753Z,12.45
2022-11-04T14:00:31.887Z,9.57
2022-11-04T14:03:22.930Z,11.95
2022-11-04T14:06:05.547Z,8.38
2022-11-04T14:08:33.103Z,12.05
2022-11-04T14:11:05.306Z,12.90
2022-11-04T14:13:35.128Z,11.52
2022-11-04T14:16:04.960Z,12.85
2022-11-04T14:18:36.941Z,11.43
2022-11-04T14:21:23.084Z,11.27
2022-11-04T14:24:02.186Z,11.40
2022-11-04T14:26:45.914Z,14.13
2022-11-04T14:29:25.184Z,13.25
2022-11-04T14:31:57.881Z,16.92
2022-11-04T14:34:30.164Z,14.48
2022-11-04T14:37:02.425Z,15.10
2022-11-04T14:39:42.129Z,11.45
2022-11-04T14:42:14.346Z,18.58
2022-11-04T14:44:50.060Z,15.57
2022-11-04T14:47:29.662Z,16.08
2022-11-04T14:49:59.516Z,13.77
2022-11-04T14:52:35.119Z,18.13
2022-11-04T14:55:10.883Z,15.18
2022-11-04T14:57:50.972Z,18.20
2022-11-04T15:00:34.765Z,21.33
2022-11-04T15:03:10.347Z,13.35
2022-11-04T15:05:50.799Z,16.00
2022-11-04T15:08:29.326Z,21.98
2022-11-04T16:03:19.430Z,18.88
2022-11-04T16:06:03.872Z,20.83
2022-11-04T16:08:32.233Z,15.82
2022-11-04T16:11:26.675Z,19.73
2022-11-04T16:14:31.738Z,18.05
2022-11-04T16:17:33.051Z,18.85
2022-11-04T16:20:26.214Z,20.60
2022-11-04T16:23:16.477Z,15.65
2022-11-04T16:25:47.535Z,17.50
2022-11-04T16:28:24.682Z,19.75
2022-11-04T16:31:11.618Z,29.50
2022-11-04T16:33:40.964Z,21.05
2022-11-04T16:40:26.092Z,21.10
2022-11-04T16:46:02.335Z,31.30
2022-11-04T16:48:30.607Z,19.58
2022-11-04T16:50:57.715Z,26.20
2022-11-04T16:53:24.632Z,24.42
2022-11-04T16:55:54.262Z,21.20
2022-11-04T16:58:21.813Z,22.23
2022-11-04T17:00:48.785Z,22.95
2022-11-04T17:03:23.798Z,25.58
2022-11-04T17:05:56.592Z,24.17
2022-11-04T17:08:26.053Z,21.40
2022-11-04T17:10:54.158Z,24.45
2022-11-04T17:13:20.980Z,22.25
2022-11-04T17:15:47.983Z,21.13
2022-11-04T17:18:17.813Z,20.85
2022-11-04T17:20:52.544Z,26.15
2022-11-04T17:23:20.466Z,24.30
2022-11-04T17:25:49.177Z,20.13
2022-11-04T17:28:16.388Z,20.98
2022-11-04T17:30:44.931Z,22.38
2022-11-04T17:33:17.505Z,21.27
2022-11-04T17:35:49.420Z,21.42
2022-11-04T17:38:18.496Z,23.38
2022-11-04T17:41:04.419Z,23.50
2022-11-04T17:43:50.287Z,23.52
2022-11-04T17:46:37.802Z,22.45
2022-11-04T17:49:14.199Z,21.95
2022-11-04T17:51:44.960Z,24.20
2022-11-04T17:54:12.559Z,23.08
2022-11-04T17:56:41.962Z,21.20
2022-11-04T17:59:12.392Z,19.30
2022-11-04T18:01:48.831Z,23.90
2022-11-04T18:04:23.583Z,29.77
2022-11-04T18:06:58.434Z,24.98
2022-11-04T18:09:34.780Z,21.10
2022-11-04T18:12:20.577Z,19.35
2022-11-04T18:14:47.405Z,19.77
2022-11-04T18:17:16.618Z,22.80
2022-11-04T18:19:45.486Z,22.00
2022-11-04T18:22:12.319Z,20.48
2022-11-04T18:24:40.874Z,24.25
2022-11-04T18:27:07.874Z,20.27
2022-11-04T18:29:34.848Z,23.60
2022-11-04T18:32:01.719Z,20.23
2022-11-04T18:34:28.588Z,22.85
2022-11-04T18:36:56.810Z,23.98
2022-11-04T18:39:23.737Z,20.30
2022-11-04T18:41:50.534Z,26.17
2022-11-04T18:44:31.994Z,21.10
2022-11-04T18:46:58.912Z,22.70
2022-11-04T18:49:25.826Z,25.13
2022-11-04T18:51:52.765Z,27.55
2022-11-04T18:54:19.767Z,27.33
2022-11-04T18:56:46.988Z,21.75
2022-11-04T18:59:15.618Z,24.38
2022-11-04T19:01:43.548Z,23.92
2022-11-04T19:04:10.715Z,20.00
2022-11-04T19:06:42.575Z,25.60
2022-11-04T19:09:40.683Z,27.02
2022-11-04T19:12:18.603Z,25.83
2022-11-04T19:14:45.570Z,29.65
2022-11-04T19:17:12.503Z,27.67
2022-11-04T19:19:41.253Z,28.10
2022-11-04T19:22:08.880Z,29.80
2022-11-04T19:24:35.791Z,30.75
2022-11-04T19:27:02.709Z,24.05
2022-11-04T19:29:29.633Z,28.52
2022-11-04T19:31:56.558Z,30.60
2022-11-04T19:34:23.489Z,35.20
2022-11-04T19:36:50.413Z,31.73
2022-11-04T19:39:17.476Z,32.92
2022-11-04T19:42:03.609Z,33.17
2022-11-04T19:44:32.235Z,35.40
2022-11-04T19:46:59.161Z,30.20
2022-11-04T19:49:31.058Z,25.63
2022-11-04T19:51:59.379Z,29.83
2022-11-04T19:54:30.705Z,30.27
2022-11-04T19:56:58.956Z,33.22
2022-11-04T19:59:26.409Z,31.38
2022-11-04T20:01:58.124Z,28.95
2022-11-04T20:04:26.041Z,35.17
2022-11-04T20:06:53.080Z,32.03
2022-11-04T20:09:22.299Z,30.70
2022-11-04T20:12:07.999Z,30.63
2022-11-04T20:14:36.904Z,28.58
2022-11-04T20:17:13.194Z,24.75
2022-11-04T20:19:40.826Z,23.23
2022-11-04T20:22:07.740Z,28.85
2022-11-04T20:24:34.751Z,28.33
2022-11-04T20:27:01.880Z,29.83
2022-11-04T20:29:28.990Z,24.45
2022-11-04T20:31:55.934Z,26.10
2022-11-04T20:34:23.367Z,30.15
2022-11-04T20:36:51.051Z,25.90
2022-11-04T20:39:20.138Z,24.83
2022-11-04T20:41:47.533Z,26.80
2022-11-04T20:44:16.057Z,28.17
2022-11-04T20:46:44.352Z,28.20
2022-11-04T20:49:12.706Z,26.05
2022-11-04T20:51:47.536Z,22.58
2022-11-04T20:54:19.307Z,27.85
2022-11-04T20:56:46.581Z,24.77
2022-11-04T20:59:14.501Z,28.90
2022-11-04T21:01:44.706Z,27.85
2022-11-04T21:04:15.408Z,25.13
2022-11-04T21:06:42.917Z,23.02
2022-11-04T21:09:13.711Z,33.20
2022-11-04T21:11:41.763Z,29.52
2022-11-04T21:14:13.278Z,27.92
2022-11-04T21:16:41.302Z,31.30
2022-11-04T21:19:08.665Z,26.40
2022-11-04T21:21:35.963Z,22.30
2022-11-04T21:24:06.378Z,26.00
2022-11-04T21:26:36.015Z,26.10
2022-11-04T21:29:07.467Z,23.08
2022-11-04T21:31:36.284Z,23.65
2022-11-04T21:34:04.370Z,23.13
2022-11-04T21:36:31.514Z,22.02
2022-11-04T21:38:59.304Z,22.50
2022-11-04T21:41:29.694Z,25.83
2022-11-04T21:44:02.378Z,22.00
2022-11-04T21:46:31.307Z,22.35
2022-11-04T21:48:58.865Z,25.23
2022-11-04T21:51:31.919Z,26.35
2022-11-04T21:53:59.947Z,25.05
2022-11-04T21:56:32.057Z,25.52
2022-11-04T21:58:59.571Z,25.35
2022-11-04T22:01:29.080Z,23.35
2022-11-04T22:03:59.545Z,27.17
2022-11-04T22:06:33.610Z,27.23
2022-11-04T22:09:03.891Z,25.83
2022-11-04T22:11:33.065Z,27.10
2022-11-04T22:14:04.416Z,23.73
2022-11-04T22:16:34.653Z,26.85
2022-11-04T22:19:04.711Z,25.20
2022-11-04T22:21:32.183Z,25.85
2022-11-04T22:24:00.439Z,26.98
2022-11-04T22:26:30.878Z,28.98
2022-11-04T22:28:58.384Z,27.92
2022-11-04T22:31:33.510Z,24.40
2022-11-04T22:36:30.078Z,30.35
2022-11-04T22:38:57.691Z,29.67
2022-11-04T22:41:31.559Z,23.40
2022-11-04T22:43:59.417Z,25.00
2022-11-04T22:46:31.037Z,27.75
2022-11-04T22:48:59.593Z,24.05
2022-11-04T22:51:26.807Z,26.60
2022-11-04T22:53:58.924Z,25.27
2022-11-04T22:56:27.146Z,30.02
2022-11-04T22:58:54.558Z,30.67
2022-11-04T23:01:21.943Z,28.65
2022-11-04T23:03:52.684Z,30.80
2022-11-04T23:06:19.894Z,30.25
2022-11-04T23:08:46.794Z,28.35
2022-11-04T23:11:40.886Z,31.90
2022-11-04T23:14:32.717Z,25.92
2022-11-04T23:17:19.047Z,27.63
2022-11-04T23:19:46.239Z,31.83
2022-11-04T23:22:31.635Z,26.10
2022-11-04T23:25:09.606Z,30.90
2022-11-04T23:28:12.319Z,34.13
2022-11-04T23:30:46.055Z,26.15
2022-11-04T23:33:15.314Z,27.23
2022-11-04T23:36:07.677Z,26.73
2022-11-04T23:38:37.671Z,27.67
2022-11-04T23:41:26.078Z,29.80
2022-11-04T23:43:53.111Z,25.77
2022-11-04T23:46:43.020Z,27.50
2022-11-04T23:49:30.328Z,25.65
2022-11-04T23:52:16.377Z,25.67
2022-11-04T23:55:01.868Z,25.58
